createdAt,value
2018-03-16T00:01:43.344Z,8.33
2018-03-16T00:04:12.120Z,8.77
2018-03-16T00:06:40.660Z,7.90
2018-03-16T00:09:09.409Z,7.80
2018-03-16T00:11:38.764Z,11.00
2018-03-16T00:14:07.395Z,12.03
2018-03-16T00:16:36.843Z,12.63
2018-03-16T00:19:05.432Z,10.80
2018-03-16T00:21:34.074Z,13.40
2018-03-16T00:24:02.611Z,12.93
2018-03-16T00:26:31.208Z,19.67
2018-03-16T00:29:00.552Z,16.70
2018-03-16T00:31:29.266Z,12.97
2018-03-16T00:33:58.238Z,11.60
2018-03-16T00:36:26.907Z,7.50
2018-03-16T00:38:55.630Z,7.50
2018-03-16T00:41:24.416Z,7.77
2018-03-16T00:43:53.057Z,10.27
2018-03-16T00:46:22.511Z,9.03
2018-03-16T00:48:51.667Z,9.33
2018-03-16T00:51:20.208Z,8.83
2018-03-16T00:53:48.933Z,11.70
2018-03-16T00:56:17.577Z,7.73
2018-03-16T00:58:46.344Z,10.33
2018-03-16T01:01:15.033Z,17.87
2018-03-16T01:03:43.924Z,17.97
2018-03-16T01:06:12.621Z,16.23
2018-03-16T01:08:41.395Z,10.63
2018-03-16T01:11:11.159Z,14.53
2018-03-16T01:13:40.621Z,14.70
2018-03-16T01:16:09.295Z,14.70
2018-03-16T01:18:38.224Z,14.43
2018-03-16T01:21:07.537Z,14.27
2018-03-16T01:23:36.848Z,13.53
2018-03-16T01:26:05.840Z,14.03
2018-03-16T01:28:34.568Z,9.77
2018-03-16T01:31:03.253Z,10.03
2018-03-16T01:33:32.141Z,10.07
2018-03-16T01:36:00.741Z,9.43
2018-03-16T01:38:29.298Z,8.87
2018-03-16T01:40:58.247Z,9.40
2018-03-16T01:43:27.713Z,8.00
2018-03-16T01:45:56.257Z,9.57
2018-03-16T01:48:24.975Z,8.40
2018-03-16T01:50:53.519Z,8.43
2018-03-16T01:53:22.186Z,6.93
2018-03-16T01:55:51.804Z,6.20
2018-03-16T01:58:21.254Z,7.43
2018-03-16T02:00:49.940Z,7.97
2018-03-16T02:03:18.630Z,9.83
2018-03-16T02:05:47.276Z,18.90
2018-03-16T02:08:15.998Z,13.93
2018-03-16T02:10:44.937Z,9.77
2018-03-16T02:13:14.352Z,12.97
2018-03-16T02:15:43.800Z,8.93
2018-03-16T02:18:13.508Z,14.43
2018-03-16T02:20:42.192Z,10.67
2018-03-16T02:23:10.876Z,8.67
2018-03-16T02:25:39.870Z,8.70
2018-03-16T02:28:08.512Z,11.53
2018-03-16T02:30:37.241Z,8.47
2018-03-16T02:33:06.038Z,10.73
2018-03-16T02:35:34.722Z,11.50
2018-03-16T02:38:03.358Z,10.97
2018-03-16T02:40:33.827Z,16.77
2018-03-16T02:43:02.514Z,17.30
2018-03-16T02:45:31.162Z,13.37
2018-03-16T02:47:59.885Z,14.90
2018-03-16T02:50:28.571Z,12.40
2018-03-16T02:52:57.256Z,10.90
2018-03-16T02:55:26.240Z,10.17
2018-03-16T02:57:54.936Z,8.83
2018-03-16T03:00:23.620Z,9.87
2018-03-16T03:08:59.216Z,17.70
2018-03-16T03:11:27.893Z,14.63
2018-03-16T03:13:56.587Z,26.07
2018-03-16T03:16:25.580Z,27.77
2018-03-16T03:18:54.214Z,24.87
2018-03-16T03:21:23.665Z,19.00
2018-03-16T03:23:52.352Z,23.23
2018-03-16T03:26:20.972Z,25.37
2018-03-16T03:28:50.292Z,24.60
2018-03-16T03:31:19.231Z,27.17
2018-03-16T03:33:47.872Z,31.07
2018-03-16T03:36:16.539Z,20.30
2018-03-16T03:38:46.309Z,16.80
2018-03-16T03:41:14.954Z,13.60
2018-03-16T03:43:43.680Z,18.07
2018-03-16T03:46:12.365Z,17.03
2018-03-16T03:48:41.052Z,18.33
2018-03-16T03:51:09.675Z,17.67
2018-03-16T03:53:38.547Z,18.33
2018-03-16T03:56:08.000Z,14.13
2018-03-16T03:58:36.545Z,14.20
2018-03-16T04:01:05.371Z,19.83
2018-03-16T04:03:34.015Z,14.37
2018-03-16T04:06:02.742Z,18.73
2018-03-16T04:08:31.537Z,19.13
2018-03-16T04:11:00.223Z,26.17
2018-03-16T04:13:28.910Z,26.03
2018-03-16T04:15:58.499Z,25.57
2018-03-16T04:18:27.197Z,21.90
2018-03-16T04:20:55.887Z,23.97
2018-03-16T04:23:24.673Z,15.73
2018-03-16T04:25:53.232Z,17.37
2018-03-16T04:28:21.891Z,18.30
2018-03-16T04:30:51.388Z,17.70
2018-03-16T04:33:20.852Z,18.33
2018-03-16T04:35:49.471Z,24.27
2018-03-16T04:38:18.943Z,20.97
2018-03-16T04:40:47.503Z,19.10
2018-03-16T04:43:16.199Z,23.13
2018-03-16T04:45:45.401Z,26.07
2018-03-16T04:48:14.087Z,44.60
2018-03-16T04:50:42.731Z,43.50
2018-03-16T04:53:11.666Z,43.93
2018-03-16T04:55:40.292Z,38.30
2018-03-16T04:58:09.751Z,35.07
2018-03-16T05:00:38.450Z,37.70
2018-03-16T05:03:07.122Z,90.87
2018-03-16T05:05:35.809Z,80.07
2018-03-16T05:08:04.604Z,94.50
2018-03-16T05:10:33.291Z,53.80
2018-03-16T05:13:01.977Z,53.47
2018-03-16T05:15:31.376Z,41.20
2018-03-16T05:18:00.005Z,46.47
2018-03-16T05:20:29.324Z,53.60
2018-03-16T05:22:58.048Z,56.83
2018-03-16T05:25:26.733Z,55.23
2018-03-16T05:27:55.518Z,70.00
2018-03-16T05:30:24.469Z,49.83
2018-03-16T05:32:53.196Z,41.60
2018-03-16T05:35:21.829Z,40.70
2018-03-16T05:37:51.589Z,19.30
2018-03-16T05:40:20.237Z,15.73
2018-03-16T05:42:48.970Z,16.43
2018-03-16T05:45:18.677Z,19.43
2018-03-16T05:47:47.645Z,27.07
2018-03-16T05:50:16.356Z,36.10
2018-03-16T05:52:45.306Z,61.57
2018-03-16T05:55:14.034Z,59.43
2018-03-16T05:57:42.719Z,50.07
2018-03-16T06:00:11.509Z,50.60
2018-03-16T06:02:40.190Z,46.87
2018-03-16T06:05:08.824Z,49.70
2018-03-16T06:07:38.286Z,42.83
2018-03-16T06:10:06.952Z,35.57
2018-03-16T06:12:35.657Z,31.60
2018-03-16T06:15:04.345Z,29.27
2018-03-16T06:17:33.028Z,24.73
2018-03-16T06:20:01.715Z,25.73
2018-03-16T06:22:30.646Z,22.20
2018-03-16T06:24:59.393Z,24.13
2018-03-16T06:27:28.029Z,30.47
2018-03-16T06:29:57.786Z,20.63
2018-03-16T06:32:26.471Z,16.33
2018-03-16T06:34:55.137Z,14.73
2018-03-16T06:37:23.940Z,15.73
2018-03-16T06:39:52.572Z,19.47
2018-03-16T06:42:21.313Z,23.10
2018-03-16T06:44:50.259Z,24.03
2018-03-16T06:47:19.714Z,39.37
2018-03-16T06:49:48.405Z,21.80
2018-03-16T06:52:18.415Z,29.73
2018-03-16T06:54:47.056Z,24.63
2018-03-16T06:57:15.787Z,17.67
2018-03-16T06:59:44.517Z,18.33
2018-03-16T07:02:13.256Z,16.70
2018-03-16T07:04:41.943Z,14.73
2018-03-16T07:07:10.737Z,29.83
2018-03-16T07:09:39.621Z,16.63
2018-03-16T07:12:08.203Z,17.20
2018-03-16T07:14:36.892Z,18.80
2018-03-16T07:17:05.617Z,16.73
2018-03-16T07:19:35.087Z,18.73
2018-03-16T07:22:03.873Z,38.77
2018-03-16T07:24:32.559Z,21.37
2018-03-16T07:27:01.245Z,18.47
2018-03-16T07:29:30.237Z,19.00
2018-03-16T07:31:58.876Z,18.07
2018-03-16T07:34:27.609Z,16.10
2018-03-16T07:36:56.394Z,15.63
2018-03-16T07:39:25.079Z,89.10
2018-03-16T07:41:53.668Z,14.60
2018-03-16T07:44:22.758Z,13.13
2018-03-16T07:46:51.408Z,31.93
2018-03-16T07:49:20.129Z,33.10
2018-03-16T07:51:49.122Z,20.30
2018-03-16T07:54:17.762Z,19.43
2018-03-16T07:56:46.494Z,16.77
2018-03-16T07:59:15.451Z,14.07
2018-03-16T08:01:44.172Z,20.47
2018-03-16T08:04:12.809Z,80.77
2018-03-16T08:06:41.546Z,19.53
2018-03-16T08:09:10.438Z,33.83
2018-03-16T08:11:39.027Z,20.57
2018-03-16T08:14:07.811Z,20.83
2018-03-16T08:16:36.496Z,27.93
2018-03-16T08:19:05.143Z,22.60
2018-03-16T08:21:34.137Z,24.47
2018-03-16T08:24:02.860Z,19.43
2018-03-16T08:26:31.548Z,28.43
2018-03-16T08:29:00.330Z,21.70
2018-03-16T08:31:29.017Z,26.30
2018-03-16T08:33:57.707Z,21.73
2018-03-16T08:36:26.439Z,20.37
2018-03-16T08:38:55.797Z,21.23
2018-03-16T08:41:24.427Z,19.53
2018-03-16T08:43:54.148Z,23.27
2018-03-16T08:46:22.876Z,23.47
2018-03-16T08:48:51.562Z,21.33
2018-03-16T08:51:20.303Z,25.63
2018-03-16T08:53:49.032Z,25.73
2018-03-16T08:56:17.623Z,26.60
2018-03-16T08:58:46.477Z,26.07
2018-03-16T09:01:15.198Z,35.23
2018-03-16T09:03:43.941Z,26.43
2018-03-16T09:06:12.938Z,36.73
2018-03-16T09:08:41.497Z,33.17
2018-03-16T09:11:10.962Z,25.40
2018-03-16T09:13:39.714Z,25.70
2018-03-16T09:16:08.383Z,29.33
2018-03-16T09:18:37.118Z,28.13
2018-03-16T09:21:06.068Z,60.70
2018-03-16T09:23:34.798Z,23.90
2018-03-16T09:26:03.594Z,27.73
2018-03-16T09:28:32.518Z,35.57
2018-03-16T09:31:01.985Z,25.90
2018-03-16T09:33:30.658Z,28.20
2018-03-16T09:35:59.589Z,26.07
2018-03-16T09:38:28.350Z,23.70
2018-03-16T09:40:57.809Z,18.60
2018-03-16T09:43:27.314Z,20.40
2018-03-16T09:45:56.009Z,23.43
2018-03-16T09:48:24.597Z,18.13
2018-03-16T09:50:53.456Z,22.67
2018-03-16T09:53:29.752Z,18.33
2018-03-16T09:55:58.452Z,65.63
2018-03-16T09:58:27.120Z,18.80
2018-03-16T10:00:55.684Z,23.07
2018-03-16T10:03:24.305Z,24.97
2018-03-16T10:05:52.868Z,14.03
2018-03-16T10:08:21.421Z,14.67
2018-03-16T10:10:50.038Z,14.47
2018-03-16T10:13:19.500Z,18.27
2018-03-16T10:15:48.196Z,25.17
2018-03-16T10:18:17.280Z,19.40
2018-03-16T10:20:46.014Z,15.33
2018-03-16T10:23:14.573Z,17.83
2018-03-16T10:25:43.189Z,17.33
2018-03-16T10:28:11.934Z,13.90
2018-03-16T10:30:40.647Z,57.77
2018-03-16T10:33:09.334Z,19.63
2018-03-16T10:35:37.986Z,21.67
2018-03-16T10:38:07.074Z,13.87
2018-03-16T10:40:36.770Z,14.50
2018-03-16T10:43:06.226Z,13.03
2018-03-16T10:45:34.882Z,13.37
2018-03-16T10:48:04.465Z,14.57
2018-03-16T10:50:33.144Z,15.53
2018-03-16T10:53:02.849Z,14.97
2018-03-16T10:55:31.464Z,14.63
2018-03-16T10:58:00.789Z,17.47
2018-03-16T11:00:34.921Z,21.57
2018-03-16T11:03:08.506Z,19.00
2018-03-16T11:05:42.529Z,17.80
2018-03-16T11:08:11.108Z,13.73
2018-03-16T11:10:39.702Z,15.47
2018-03-16T11:13:08.426Z,15.53
2018-03-16T11:15:37.886Z,16.63
2018-03-16T11:18:06.458Z,15.63
2018-03-16T11:20:35.062Z,17.57
2018-03-16T11:23:03.634Z,19.83
2018-03-16T11:25:32.188Z,15.30
2018-03-16T11:28:00.999Z,19.10
2018-03-16T11:30:29.586Z,17.67
2018-03-16T11:32:58.390Z,15.93
2018-03-16T11:35:27.165Z,18.70
2018-03-16T11:37:55.725Z,18.67
2018-03-16T11:40:24.288Z,14.53
2018-03-16T11:42:53.032Z,20.80
2018-03-16T11:45:23.291Z,17.43
2018-03-16T11:47:51.853Z,15.13
2018-03-16T11:50:20.473Z,15.20
2018-03-16T11:52:49.038Z,15.13
2018-03-16T11:55:18.365Z,17.87
2018-03-16T11:57:47.096Z,13.67
2018-03-16T12:00:15.663Z,16.87
2018-03-16T12:02:44.227Z,12.67
2018-03-16T12:05:13.657Z,17.63
2018-03-16T12:07:43.020Z,13.63
2018-03-16T12:10:11.577Z,10.07
2018-03-16T12:12:41.289Z,8.80
2018-03-16T12:15:10.614Z,11.03
2018-03-16T12:17:39.180Z,23.47
2018-03-16T12:20:07.789Z,18.37
2018-03-16T12:22:36.345Z,23.07
2018-03-16T12:25:05.669Z,16.43
2018-03-16T12:27:34.606Z,13.17
2018-03-16T12:30:03.193Z,21.73
2018-03-16T12:32:31.767Z,18.53
2018-03-16T12:35:00.535Z,19.40
2018-03-16T12:37:29.092Z,17.93
2018-03-16T12:39:57.661Z,20.50
2018-03-16T12:42:26.270Z,29.27
2018-03-16T12:44:54.824Z,14.93
2018-03-16T12:47:24.616Z,10.90
2018-03-16T12:49:53.994Z,14.57
2018-03-16T12:52:22.557Z,10.07
2018-03-16T12:54:51.120Z,12.10
2018-03-16T12:57:19.739Z,11.73
2018-03-16T12:59:48.288Z,8.83
2018-03-16T13:02:16.843Z,12.27
2018-03-16T13:04:45.492Z,10.17
2018-03-16T13:07:14.040Z,16.03
2018-03-16T13:09:42.592Z,9.90
2018-03-16T13:12:12.153Z,8.50
2018-03-16T13:14:40.714Z,11.67
2018-03-16T13:17:09.404Z,10.20
2018-03-16T13:19:38.040Z,10.80
2018-03-16T13:22:07.704Z,7.30
2018-03-16T13:24:36.261Z,9.07
2018-03-16T13:27:05.059Z,6.07
2018-03-16T13:29:33.613Z,11.53
2018-03-16T13:32:02.937Z,10.83
2018-03-16T13:34:31.761Z,16.50
2018-03-16T13:37:00.317Z,10.10
2018-03-16T13:39:28.868Z,9.40
2018-03-16T13:41:58.430Z,7.67
2018-03-16T13:44:26.987Z,10.17
2018-03-16T13:46:55.544Z,7.50
2018-03-16T13:49:25.310Z,10.90
2018-03-16T13:51:53.869Z,16.53
2018-03-16T13:54:22.429Z,7.43
2018-03-16T13:56:51.038Z,8.63
2018-03-16T13:59:19.596Z,10.97
2018-03-16T14:01:48.923Z,8.73
2018-03-16T14:04:17.525Z,6.30
2018-03-16T14:06:46.118Z,9.70
2018-03-16T14:09:15.093Z,7.27
2018-03-16T14:11:43.889Z,7.67
2018-03-16T14:14:13.252Z,7.87
2018-03-16T14:16:41.809Z,10.37
2018-03-16T14:19:11.374Z,11.40
2018-03-16T14:21:39.944Z,9.57
2018-03-16T14:24:08.544Z,11.80
2018-03-16T14:26:37.148Z,9.40
2018-03-16T14:29:06.161Z,23.30
2018-03-16T14:31:35.482Z,12.27
2018-03-16T14:34:04.216Z,14.63
2018-03-16T14:36:32.777Z,7.97
2018-03-16T14:39:01.325Z,8.80
2018-03-16T14:41:30.765Z,8.20
2018-03-16T14:43:59.318Z,9.23
2018-03-16T14:46:27.876Z,6.40
2018-03-16T14:48:57.563Z,11.33
2018-03-16T14:51:26.189Z,10.67
2018-03-16T14:53:55.509Z,11.17
2018-03-16T14:56:24.744Z,17.93
2018-03-16T14:58:53.352Z,26.87
2018-03-16T15:01:22.298Z,20.80
2018-03-16T15:03:51.308Z,28.13
2018-03-16T15:06:19.876Z,16.40
2018-03-16T15:08:48.435Z,17.70
2018-03-16T15:11:17.185Z,27.80
2018-03-16T15:13:45.745Z,20.80
2018-03-16T15:16:15.069Z,40.97
2018-03-16T15:18:43.690Z,42.33
2018-03-16T15:21:12.258Z,17.93
2018-03-16T15:23:41.588Z,12.93
2018-03-16T15:26:10.197Z,26.20
2018-03-16T15:28:38.741Z,32.57
2018-03-16T15:31:07.308Z,27.77
2018-03-16T15:33:36.359Z,13.27
2018-03-16T15:36:04.927Z,15.07
2018-03-16T15:38:33.483Z,23.23
2018-03-16T15:41:02.645Z,24.80
2018-03-16T15:43:32.292Z,24.63
2018-03-16T15:46:00.865Z,34.67
2018-03-16T15:48:29.698Z,28.00
2018-03-16T15:50:58.284Z,44.60
2018-03-16T15:53:26.844Z,60.93
2018-03-16T15:55:55.865Z,230.40
2018-03-16T15:58:24.420Z,72.37
2018-03-16T16:00:53.048Z,78.90
2018-03-16T16:03:21.658Z,87.60
2018-03-16T16:05:50.990Z,52.57
2018-03-16T16:08:19.561Z,67.60
2018-03-16T16:10:48.193Z,50.20
2018-03-16T16:13:16.770Z,57.17
2018-03-16T16:15:45.346Z,69.80
2018-03-16T16:18:14.032Z,120.37
2018-03-16T16:20:42.597Z,75.93
2018-03-16T16:23:11.300Z,169.53
2018-03-16T16:25:40.199Z,87.93
2018-03-16T16:28:09.560Z,73.87
2018-03-16T16:30:38.226Z,463.73
2018-03-16T16:33:06.963Z,227.43
2018-03-16T16:35:35.659Z,121.17
2018-03-16T16:38:04.237Z,83.77
2018-03-16T16:40:33.230Z,77.83
2018-03-16T16:43:01.967Z,82.97
2018-03-16T16:45:30.702Z,84.97
2018-03-16T16:48:00.278Z,101.37
2018-03-16T16:50:29.000Z,111.37
2018-03-16T16:52:57.736Z,107.33
2018-03-16T16:55:27.801Z,144.30
2018-03-16T16:57:56.501Z,158.17
2018-03-16T17:00:25.179Z,135.10
2018-03-16T17:02:55.037Z,125.60
2018-03-16T17:05:23.652Z,132.50
2018-03-16T17:07:54.548Z,137.80
2018-03-16T17:10:24.014Z,133.60
2018-03-16T17:12:52.694Z,127.10
2018-03-16T17:15:21.379Z,134.20
2018-03-16T17:17:50.118Z,125.90
2018-03-16T17:20:19.564Z,135.00
2018-03-16T17:22:48.667Z,137.90
2018-03-16T17:25:17.658Z,164.40
2018-03-16T17:27:46.248Z,134.97
2018-03-16T17:30:14.932Z,140.30
2018-03-16T17:32:44.100Z,143.40
2018-03-16T17:35:12.823Z,152.23
2018-03-16T17:37:41.436Z,165.60
2018-03-16T17:40:11.211Z,220.60
2018-03-16T17:42:39.898Z,169.10
2018-03-16T17:45:08.545Z,171.10
2018-03-16T17:47:37.313Z,239.50
2018-03-16T17:50:06.727Z,303.93
2018-03-16T17:52:35.431Z,292.60
2018-03-16T17:55:04.166Z,247.73
2018-03-16T17:57:32.720Z,275.63
2018-03-16T18:00:01.428Z,292.50
2018-03-16T18:02:31.194Z,349.90
2018-03-16T18:04:59.788Z,340.80
2018-03-16T18:07:28.531Z,415.87
2018-03-16T18:09:57.252Z,387.97
2018-03-16T18:12:25.937Z,387.30
2018-03-16T18:14:54.623Z,293.00
2018-03-16T18:17:23.804Z,199.03
2018-03-16T18:19:52.511Z,223.43
2018-03-16T18:22:21.565Z,198.63
2018-03-16T18:24:50.288Z,265.73
2018-03-16T18:27:18.952Z,372.83
2018-03-16T18:29:48.394Z,304.43
2018-03-16T18:32:17.162Z,195.97
2018-03-16T18:34:46.680Z,220.97
2018-03-16T18:37:15.323Z,215.23
2018-03-16T18:39:44.141Z,235.43
2018-03-16T18:42:12.802Z,255.30
2018-03-16T18:44:41.453Z,250.27
2018-03-16T18:47:10.396Z,222.97
2018-03-16T18:49:39.113Z,247.53
2018-03-16T18:52:07.700Z,249.07
2018-03-16T18:54:37.424Z,439.70
2018-03-16T18:57:06.159Z,293.23
2018-03-16T18:59:34.810Z,197.43
2018-03-16T19:02:03.625Z,176.20
2018-03-16T19:04:32.326Z,142.10
2018-03-16T19:07:00.961Z,147.73
2018-03-16T19:09:29.757Z,153.93
2018-03-16T19:11:58.526Z,166.27
2018-03-16T19:14:28.092Z,145.03
2018-03-16T19:16:57.895Z,111.83
2018-03-16T19:19:26.446Z,90.17
2018-03-16T19:21:55.169Z,93.47
2018-03-16T19:24:23.953Z,88.07
2018-03-16T19:26:52.639Z,77.43
2018-03-16T19:29:21.225Z,75.20
2018-03-16T19:31:51.001Z,80.40
2018-03-16T19:34:19.709Z,96.40
2018-03-16T19:36:49.161Z,108.23
2018-03-16T19:39:17.946Z,76.83
2018-03-16T19:41:46.709Z,80.40
2018-03-16T19:44:15.289Z,101.20
2018-03-16T19:46:43.982Z,111.70
2018-03-16T19:49:12.712Z,105.00
2018-03-16T19:51:41.289Z,113.47
2018-03-16T19:54:09.982Z,130.40
2018-03-16T19:56:39.447Z,147.00
2018-03-16T19:59:08.192Z,117.53
2018-03-16T20:01:36.957Z,124.30
2018-03-16T20:04:06.522Z,117.57
2018-03-16T20:06:35.218Z,128.37
2018-03-16T20:09:04.310Z,118.37
2018-03-16T20:11:32.888Z,138.67
2018-03-16T20:14:01.478Z,153.30
2018-03-16T20:16:30.085Z,119.10
2018-03-16T20:18:59.511Z,117.40
2018-03-16T20:21:28.253Z,177.33
2018-03-16T20:23:57.198Z,158.00
2018-03-16T20:26:25.825Z,146.03
2018-03-16T20:28:54.511Z,131.87
2018-03-16T20:31:23.202Z,139.93
2018-03-16T20:33:51.981Z,122.67
2018-03-16T20:36:20.708Z,82.33
2018-03-16T20:38:50.375Z,64.47
2018-03-16T20:41:19.069Z,45.40
2018-03-16T20:43:47.645Z,33.83
2018-03-16T20:46:16.847Z,54.50
2018-03-16T20:48:45.532Z,50.70
2018-03-16T20:51:16.950Z,34.70
2018-03-16T20:53:46.033Z,71.90
2018-03-16T20:56:14.682Z,94.73
2018-03-16T20:58:43.415Z,102.90
2018-03-16T21:01:12.406Z,114.80
2018-03-16T21:03:41.034Z,124.80
2018-03-16T21:06:10.495Z,103.30
2018-03-16T21:08:39.145Z,111.97
2018-03-16T21:11:07.831Z,108.00
2018-03-16T21:13:36.420Z,123.07
2018-03-16T21:16:05.102Z,97.17
2018-03-16T21:18:33.790Z,101.90
2018-03-16T21:21:02.559Z,119.83
2018-03-16T21:23:32.128Z,104.40
2018-03-16T21:26:00.948Z,107.43
2018-03-16T21:28:30.362Z,105.37
2018-03-16T21:31:00.029Z,93.83
2018-03-16T21:33:28.594Z,83.63
2018-03-16T21:35:57.193Z,66.97
2018-03-16T21:38:26.766Z,88.00
2018-03-16T21:40:55.453Z,90.27
2018-03-16T21:43:24.917Z,96.73
2018-03-16T21:45:53.866Z,86.20
2018-03-16T21:48:22.595Z,88.67
2018-03-16T21:50:51.252Z,132.63
2018-03-16T21:53:19.991Z,130.07
2018-03-16T21:55:48.661Z,87.40
2018-03-16T21:58:18.778Z,51.50
2018-03-16T22:00:47.792Z,58.87
2018-03-16T22:03:17.262Z,43.50
2018-03-16T22:05:45.964Z,55.70
2018-03-16T22:08:14.642Z,43.60
2018-03-16T22:10:43.334Z,31.63
2018-03-16T22:13:12.020Z,44.00
2018-03-16T22:15:40.755Z,36.93
2018-03-16T22:18:09.491Z,33.73
2018-03-16T22:20:38.116Z,52.27
2018-03-16T22:23:07.783Z,89.33
2018-03-16T22:25:36.471Z,250.27
2018-03-16T22:28:05.051Z,236.47
2018-03-16T22:30:33.940Z,112.37
2018-03-16T22:33:02.625Z,115.13
2018-03-16T22:35:31.275Z,98.10
2018-03-16T22:38:00.088Z,63.30
2018-03-16T22:40:28.781Z,40.77
2018-03-16T22:42:57.479Z,48.80
2018-03-16T22:45:26.196Z,40.93
2018-03-16T22:47:55.662Z,38.33
2018-03-16T22:50:24.306Z,39.17
2018-03-16T22:52:54.163Z,52.33
2018-03-16T22:55:22.750Z,70.50
2018-03-16T22:57:51.327Z,84.73
2018-03-16T23:00:20.319Z,77.10
2018-03-16T23:02:49.004Z,70.20
2018-03-16T23:05:17.591Z,75.40
2018-03-16T23:07:46.557Z,64.97
2018-03-16T23:10:15.271Z,66.30
2018-03-16T23:12:44.057Z,61.33
2018-03-16T23:15:12.782Z,61.87
2018-03-16T23:17:42.250Z,49.33
2018-03-16T23:20:10.825Z,59.77
2018-03-16T23:22:39.720Z,38.90
2018-03-16T23:25:08.269Z,37.13
2018-03-16T23:27:36.949Z,37.77
2018-03-16T23:30:05.744Z,37.20
2018-03-16T23:32:34.464Z,46.17
2018-03-16T23:35:03.104Z,41.23
2018-03-16T23:37:31.801Z,44.07
2018-03-16T23:40:00.422Z,47.73
2018-03-16T23:42:29.108Z,46.73
2018-03-16T23:44:57.851Z,46.60
2018-03-16T23:47:26.577Z,47.10
2018-03-16T23:49:55.212Z,46.80
2018-03-16T23:52:24.204Z,52.80
2018-03-16T23:54:52.844Z,47.97
2018-03-16T23:57:21.490Z,49.63
2018-03-16T23:59:50.583Z,111.47
